Time;durP1;ratioP1;P1;durP2;ratioP2;P2;SDS_P1;SDS_P2;PMS_P1;PMS_P2;Temp;Humidity;BMP_temperature;BMP_pressure;BME280_temperature;BME280_humidity;BME280_pressure;Samples;Min_cycle;Max_cycle;Signal;HPM_P1;HPM_P2
2021/08/18 00:01:45;;;;;;;10.95;7.82;;;15.30;99.90;;;;;;5074671;28;20029;-86
2021/08/18 00:04:12;;;;;;;9.32;7.13;;;15.30;99.90;;;;;;5074579;28;20047;-85
2021/08/18 00:06:38;;;;;;;11.65;8.15;;;15.30;99.90;;;;;;5075515;28;20025;-85
2021/08/18 00:09:05;;;;;;;12.82;8.32;;;15.30;99.90;;;;;;5074648;28;20055;-85
2021/08/18 00:11:31;;;;;;;12.38;8.88;;;15.20;99.90;;;;;;5076319;28;20028;-86
2021/08/18 00:13:57;;;;;;;14.40;9.00;;;15.20;99.90;;;;;;5063068;28;20572;-86
2021/08/18 00:16:25;;;;;;;11.52;8.35;;;15.20;99.90;;;;;;5054277;28;20075;-87
2021/08/18 00:18:52;;;;;;;11.32;7.32;;;15.20;99.90;;;;;;5033698;28;20021;-85
2021/08/18 00:21:20;;;;;;;10.73;7.40;;;15.30;99.90;;;;;;5021082;28;20029;-86
2021/08/18 00:23:46;;;;;;;10.75;6.97;;;15.20;99.90;;;;;;5038388;28;20183;-87
2021/08/18 00:26:13;;;;;;;10.93;6.97;;;15.20;99.90;;;;;;5038625;28;20056;-86
2021/08/18 00:28:40;;;;;;;10.38;6.82;;;15.30;99.90;;;;;;5038181;28;20028;-87
2021/08/18 00:31:07;;;;;;;11.70;7.85;;;15.30;99.90;;;;;;5038373;28;20032;-86
2021/08/18 00:33:33;;;;;;;11.60;6.88;;;15.30;99.90;;;;;;5038048;28;20037;-86
2021/08/18 00:36:00;;;;;;;9.75;6.53;;;15.30;99.90;;;;;;5038179;28;20029;-86
2021/08/18 00:38:26;;;;;;;9.95;6.47;;;15.30;99.90;;;;;;5038144;28;20029;-86
2021/08/18 00:40:52;;;;;;;10.38;7.05;;;15.30;99.90;;;;;;5038350;28;20032;-85
2021/08/18 00:43:18;;;;;;;9.32;7.10;;;15.30;99.90;;;;;;5038112;28;20052;-86
2021/08/18 00:45:44;;;;;;;11.57;7.53;;;15.30;99.90;;;;;;5037911;28;20465;-85
2021/08/18 00:48:10;;;;;;;11.05;7.35;;;15.30;99.90;;;;;;5037535;28;20082;-85
2021/08/18 00:50:36;;;;;;;12.73;6.90;;;15.30;99.90;;;;;;5055921;28;20096;-86
2021/08/18 00:53:02;;;;;;;11.13;6.50;;;15.30;99.90;;;;;;5037907;28;20059;-87
2021/08/18 00:55:29;;;;;;;10.55;6.68;;;15.30;99.90;;;;;;5037561;28;20021;-86
2021/08/18 00:57:57;;;;;;;10.88;7.30;;;15.30;99.90;;;;;;5037929;28;20032;-85
2021/08/18 01:00:26;;;;;;;11.40;7.38;;;15.20;99.90;;;;;;5037112;28;20033;-86
2021/08/18 01:02:52;;;;;;;11.10;8.02;;;15.30;99.90;;;;;;5037518;28;20473;-85
2021/08/18 01:05:27;;;;;;;11.65;7.57;;;15.20;99.90;;;;;;5048499;28;20029;-85
2021/08/18 01:07:55;;;;;;;11.48;7.85;;;15.20;99.90;;;;;;5035496;28;20032;-86
2021/08/18 01:10:24;;;;;;;11.00;6.68;;;15.30;99.90;;;;;;5027296;28;20021;-86
2021/08/18 01:12:51;;;;;;;10.98;7.13;;;15.20;99.90;;;;;;5040908;28;20492;-85
2021/08/18 01:15:20;;;;;;;11.00;6.75;;;15.30;99.90;;;;;;5073735;28;20031;-85
2021/08/18 01:17:49;;;;;;;11.20;6.88;;;15.20;99.90;;;;;;5062870;28;20032;-85
2021/08/18 01:20:19;;;;;;;14.10;7.68;;;15.30;99.90;;;;;;5068958;28;20024;-86
2021/08/18 01:22:46;;;;;;;10.95;7.97;;;15.30;99.90;;;;;;5058182;28;20477;-86
2021/08/18 01:25:13;;;;;;;14.05;8.82;;;15.30;99.90;;;;;;5053919;28;20043;-86
2021/08/18 01:27:46;;;;;;;12.57;7.75;;;15.20;99.90;;;;;;5053960;28;20021;-85
2021/08/18 01:30:12;;;;;;;;;;;15.30;99.90;;;;;;5054323;28;20047;-86
2021/08/18 01:32:48;;;;;;;13.80;9.18;;;15.20;99.90;;;;;;5053712;28;20372;-85
2021/08/18 01:35:25;;;;;;;14.05;9.48;;;15.20;99.90;;;;;;5055804;28;20045;-84
2021/08/18 01:37:51;;;;;;;15.40;9.13;;;15.30;99.90;;;;;;5054009;28;20544;-84
2021/08/18 01:40:57;;;;;;;13.15;8.98;;;15.20;99.90;;;;;;5036385;27;2198987;-83
2021/08/18 01:43:23;;;;;;;12.15;7.80;;;15.30;99.90;;;;;;5072738;28;20051;-84
2021/08/18 01:45:51;;;;;;;12.75;8.52;;;15.30;99.90;;;;;;5072659;28;20075;-84
2021/08/18 01:48:20;;;;;;;14.13;8.93;;;15.30;99.90;;;;;;5072981;28;20074;-84
2021/08/18 01:50:53;;;;;;;16.50;9.60;;;15.30;99.90;;;;;;5072025;28;20028;-84
2021/08/18 01:53:22;;;;;;;15.32;10.02;;;15.30;99.90;;;;;;5090718;28;20055;-83
2021/08/18 01:55:49;;;;;;;13.95;8.40;;;15.30;99.90;;;;;;5072639;28;20024;-84
2021/08/18 01:58:15;;;;;;;12.32;8.40;;;15.30;99.90;;;;;;5072781;28;20016;-84
2021/08/18 02:00:41;;;;;;;9.85;6.85;;;15.30;99.90;;;;;;5071493;28;20064;-85
2021/08/18 02:03:06;;;;;;;13.70;7.53;;;15.30;99.90;;;;;;5071110;28;20029;-84
2021/08/18 02:05:32;;;;;;;11.23;7.25;;;15.30;99.90;;;;;;5070901;28;20062;-85
2021/08/18 02:07:58;;;;;;;10.60;7.55;;;15.30;99.90;;;;;;5071219;28;20021;-84
2021/08/18 02:10:24;;;;;;;11.77;6.88;;;15.30;99.90;;;;;;5069867;28;20028;-85
2021/08/18 02:12:50;;;;;;;9.50;6.18;;;15.30;99.90;;;;;;5070810;28;20063;-84
2021/08/18 02:15:19;;;;;;;11.77;6.25;;;15.30;99.90;;;;;;5070462;28;20028;-85
2021/08/18 02:17:46;;;;;;;9.65;6.35;;;15.30;99.90;;;;;;5088967;28;20020;-84
2021/08/18 02:20:15;;;;;;;9.93;6.65;;;15.30;99.90;;;;;;5070407;28;20073;-85
2021/08/18 02:22:41;;;;;;;11.70;6.85;;;15.30;99.90;;;;;;5088354;28;20388;-85
2021/08/18 02:25:08;;;;;;;8.70;6.82;;;15.30;99.90;;;;;;5070627;28;20024;-86
2021/08/18 02:27:34;;;;;;;10.90;7.13;;;15.30;99.90;;;;;;5070591;28;20021;-85
2021/08/18 02:30:00;;;;;;;11.20;7.75;;;15.30;99.90;;;;;;5070961;28;20036;-85
2021/08/18 02:32:26;;;;;;;12.80;8.73;;;15.30;99.90;;;;;;5071218;28;20479;-86
2021/08/18 02:34:52;;;;;;;10.98;8.68;;;15.30;99.90;;;;;;5071001;28;20116;-86
2021/08/18 02:37:18;;;;;;;13.45;8.57;;;15.30;99.90;;;;;;5071492;28;20430;-85
2021/08/18 02:39:44;;;;;;;11.30;8.38;;;15.30;99.90;;;;;;5088806;28;20060;-86
2021/08/18 02:42:10;;;;;;;10.77;7.43;;;15.30;99.90;;;;;;5071061;28;20024;-85
2021/08/18 02:44:36;;;;;;;9.70;6.65;;;15.30;99.90;;;;;;5071235;28;20020;-84
2021/08/18 02:47:01;;;;;;;9.88;6.53;;;15.30;99.90;;;;;;5071187;28;20435;-84
2021/08/18 02:49:27;;;;;;;11.05;6.57;;;15.30;99.90;;;;;;5070767;28;20020;-84
2021/08/18 02:51:53;;;;;;;9.13;5.82;;;15.30;99.90;;;;;;5059627;28;20384;-84
2021/08/18 02:54:19;;;;;;;8.73;5.32;;;15.30;99.90;;;;;;5057547;28;20034;-86
2021/08/18 02:56:45;;;;;;;6.68;4.78;;;15.30;99.90;;;;;;5058249;28;20119;-85
2021/08/18 02:59:11;;;;;;;8.05;4.68;;;15.30;99.90;;;;;;5058251;28;20115;-84
2021/08/18 03:01:38;;;;;;;7.72;4.90;;;15.30;99.90;;;;;;5076144;28;20029;-85
2021/08/18 03:04:04;;;;;;;7.00;4.32;;;15.30;99.90;;;;;;5057716;28;20033;-84
2021/08/18 03:06:29;;;;;;;7.65;4.80;;;15.30;99.90;;;;;;5058158;28;20434;-84
2021/08/18 03:08:55;;;;;;;6.82;4.72;;;15.30;99.90;;;;;;5057978;28;20024;-84
2021/08/18 03:11:20;;;;;;;8.35;5.45;;;15.20;99.90;;;;;;5057803;28;20025;-84
2021/08/18 03:13:46;;;;;;;8.18;4.93;;;15.20;99.90;;;;;;5057855;28;20452;-85
2021/08/18 03:16:12;;;;;;;6.70;4.55;;;15.20;99.90;;;;;;5057862;28;20058;-86
2021/08/18 03:18:37;;;;;;;7.50;4.70;;;15.20;99.90;;;;;;5057931;28;20039;-85
2021/08/18 03:21:03;;;;;;;6.45;3.70;;;15.20;99.90;;;;;;5076120;28;20027;-85
2021/08/18 03:23:29;;;;;;;5.50;3.65;;;15.20;99.90;;;;;;5057691;28;20028;-85
2021/08/18 03:25:55;;;;;;;5.78;3.85;;;15.20;99.90;;;;;;5057467;28;20017;-85
2021/08/18 03:28:20;;;;;;;7.30;4.30;;;15.20;99.90;;;;;;5057636;28;20082;-85
2021/08/18 03:30:47;;;;;;;8.00;3.88;;;15.20;99.90;;;;;;5057595;28;20028;-85
2021/08/18 03:33:13;;;;;;;6.60;4.00;;;15.20;99.90;;;;;;5075206;28;20430;-86
2021/08/18 03:35:38;;;;;;;6.20;4.03;;;15.20;99.90;;;;;;5057326;28;20024;-86
2021/08/18 03:38:04;;;;;;;8.32;3.95;;;15.20;99.90;;;;;;5057614;28;20017;-86
2021/08/18 03:40:30;;;;;;;5.05;3.40;;;15.10;99.90;;;;;;5056688;28;20053;-85
2021/08/18 03:42:55;;;;;;;6.47;3.65;;;15.10;99.90;;;;;;5057161;28;20024;-86
2021/08/18 03:45:21;;;;;;;5.07;3.33;;;15.10;99.90;;;;;;5057348;28;20028;-86
2021/08/18 03:47:46;;;;;;;6.88;4.10;;;15.10;99.90;;;;;;5057508;28;20506;-85
2021/08/18 03:50:12;;;;;;;6.82;3.70;;;15.10;99.90;;;;;;5057372;28;20028;-85
2021/08/18 03:52:40;;;;;;;6.75;4.18;;;15.10;99.90;;;;;;5057192;28;20098;-85
2021/08/18 03:55:06;;;;;;;7.07;4.20;;;15.10;99.90;;;;;;5075348;28;20125;-86
2021/08/18 03:57:32;;;;;;;7.65;5.03;;;15.00;99.90;;;;;;5057111;28;20411;-85
2021/08/18 03:59:59;;;;;;;8.80;5.20;;;15.00;99.90;;;;;;5074490;28;20033;-85
2021/08/18 04:02:26;;;;;;;7.32;4.75;;;15.00;99.90;;;;;;5055943;28;20025;-85
2021/08/18 04:04:52;;;;;;;6.82;4.53;;;15.00;99.90;;;;;;5056973;28;20021;-86
2021/08/18 04:07:17;;;;;;;6.13;3.80;;;15.00;99.90;;;;;;5056873;28;20454;-86
2021/08/18 04:09:43;;;;;;;5.00;3.42;;;15.00;99.90;;;;;;5056375;28;20118;-85
2021/08/18 04:12:09;;;;;;;6.85;4.28;;;15.00;99.90;;;;;;5056749;28;20036;-85
2021/08/18 04:14:35;;;;;;;6.07;3.90;;;15.00;99.90;;;;;;5056813;28;20468;-85
2021/08/18 04:17:00;;;;;;;7.72;4.38;;;15.00;99.90;;;;;;5056632;28;20021;-85
2021/08/18 04:19:26;;;;;;;6.38;4.35;;;15.00;99.90;;;;;;5056560;28;20054;-85
2021/08/18 04:21:52;;;;;;;6.18;4.47;;;15.00;99.90;;;;;;5056536;28;20103;-84
2021/08/18 04:24:17;;;;;;;7.78;4.40;;;15.00;99.90;;;;;;5056547;28;20376;-84
2021/08/18 04:26:43;;;;;;;7.28;5.03;;;15.00;99.90;;;;;;5056419;28;20024;-85
2021/08/18 04:29:09;;;;;;;6.03;4.43;;;15.00;99.90;;;;;;5074736;28;20028;-85
2021/08/18 04:31:35;;;;;;;8.27;5.35;;;15.00;99.90;;;;;;5056424;28;20027;-85
2021/08/18 04:34:00;;;;;;;7.90;4.97;;;15.00;99.90;;;;;;5054844;28;20020;-86
2021/08/18 04:36:26;;;;;;;7.22;5.03;;;15.00;99.90;;;;;;5048253;28;20469;-85
2021/08/18 04:38:53;;;;;;;7.30;4.60;;;15.00;99.90;;;;;;5070794;28;20170;-86
2021/08/18 04:41:19;;;;;;;8.32;5.05;;;15.00;99.90;;;;;;5072056;28;20033;-85
2021/08/18 04:43:44;;;;;;;10.65;4.97;;;15.00;99.90;;;;;;5053639;28;20024;-85
2021/08/18 04:46:10;;;;;;;6.88;4.70;;;15.00;99.90;;;;;;5053863;28;20495;-85
2021/08/18 04:48:36;;;;;;;7.07;4.70;;;15.00;99.90;;;;;;5053601;28;20024;-85
2021/08/18 04:51:02;;;;;;;7.30;4.15;;;15.00;99.90;;;;;;5052906;28;20479;-85
2021/08/18 04:53:28;;;;;;;5.28;4.07;;;15.00;99.90;;;;;;5053363;28;20111;-85
2021/08/18 04:55:54;;;;;;;5.95;3.83;;;15.00;99.90;;;;;;5053924;28;20025;-85
2021/08/18 04:58:20;;;;;;;6.43;3.85;;;15.10;99.90;;;;;;5054659;28;20108;-85
2021/08/18 05:00:45;;;;;;;7.18;3.97;;;15.10;99.90;;;;;;5053419;28;20038;-85
2021/08/18 05:03:12;;;;;;;7.85;4.38;;;15.10;99.90;;;;;;5053317;28;20031;-85
2021/08/18 05:05:38;;;;;;;9.40;4.85;;;15.10;99.90;;;;;;5071282;28;20358;-85
2021/08/18 05:08:04;;;;;;;8.10;5.07;;;15.10;99.90;;;;;;5053278;28;20037;-85
2021/08/18 05:10:29;;;;;;;7.20;4.68;;;15.10;99.90;;;;;;5052868;28;20024;-85
2021/08/18 05:12:55;;;;;;;6.60;4.32;;;15.10;99.90;;;;;;5053141;28;20404;-85
2021/08/18 05:15:22;;;;;;;7.03;4.68;;;15.10;99.90;;;;;;5052823;28;20021;-85
2021/08/18 05:17:48;;;;;;;7.13;4.97;;;15.10;99.90;;;;;;5053004;28;20019;-84
2021/08/18 05:20:14;;;;;;;7.60;4.70;;;15.10;99.90;;;;;;5052989;28;20465;-84
2021/08/18 05:22:40;;;;;;;8.90;5.28;;;15.20;99.90;;;;;;5052992;28;20451;-84
2021/08/18 05:25:07;;;;;;;6.93;4.45;;;15.20;99.90;;;;;;5071077;28;20033;-85
2021/08/18 05:27:33;;;;;;;6.30;4.30;;;15.20;99.90;;;;;;5052912;28;20376;-85
2021/08/18 05:29:58;;;;;;;6.32;4.20;;;15.20;99.90;;;;;;5070971;28;20033;-85
2021/08/18 05:32:24;;;;;;;6.70;3.95;;;15.20;99.90;;;;;;5053799;28;20078;-86
2021/08/18 05:34:50;;;;;;;5.95;3.47;;;15.30;99.90;;;;;;5072926;28;20024;-86
2021/08/18 05:37:15;;;;;;;5.90;3.85;;;15.30;99.90;;;;;;5055002;28;20039;-86
2021/08/18 05:39:41;;;;;;;5.15;3.60;;;15.30;99.90;;;;;;5054549;28;20060;-86
2021/08/18 05:42:07;;;;;;;6.18;3.92;;;15.30;99.90;;;;;;5054798;28;20034;-86
2021/08/18 05:44:32;;;;;;;6.93;3.88;;;15.40;99.90;;;;;;5053951;28;20029;-86
2021/08/18 05:46:59;;;;;;;7.65;4.30;;;15.40;99.90;;;;;;5055130;28;20124;-87
2021/08/18 05:49:24;;;;;;;6.65;4.80;;;15.50;99.90;;;;;;5055094;28;20083;-87
2021/08/18 05:51:51;;;;;;;8.27;5.18;;;15.50;99.90;;;;;;5054435;28;20029;-86
2021/08/18 05:54:17;;;;;;;6.03;4.47;;;15.50;99.90;;;;;;5054624;28;20016;-86
2021/08/18 05:56:43;;;;;;;8.18;4.90;;;15.60;99.90;;;;;;5054208;28;20024;-87
2021/08/18 05:59:08;;;;;;;7.45;4.40;;;15.60;99.90;;;;;;5071763;28;20375;-86
2021/08/18 06:01:34;;;;;;;7.32;4.93;;;15.60;99.90;;;;;;5054464;28;20093;-86
2021/08/18 06:04:00;;;;;;;6.93;5.07;;;15.70;99.90;;;;;;5052551;28;20017;-85
2021/08/18 06:06:27;;;;;;;7.95;5.45;;;15.70;99.90;;;;;;5053511;28;20107;-87
2021/08/18 06:08:53;;;;;;;10.05;4.97;;;15.70;99.90;;;;;;5053311;28;20024;-86
2021/08/18 06:11:19;;;;;;;8.68;5.15;;;15.80;99.90;;;;;;5055140;28;20036;-86
2021/08/18 06:13:45;;;;;;;6.07;4.45;;;15.80;99.90;;;;;;5072026;28;20473;-87
2021/08/18 06:16:11;;;;;;;7.85;5.43;;;15.80;99.90;;;;;;5071406;28;20028;-86
2021/08/18 06:18:37;;;;;;;8.00;4.35;;;15.80;99.90;;;;;;5054397;28;20032;-86
2021/08/18 06:21:03;;;;;;;6.20;4.35;;;15.90;99.90;;;;;;5054046;28;20085;-86
2021/08/18 06:23:31;;;;;;;6.97;3.67;;;15.90;99.90;;;;;;5038021;28;20029;-85
2021/08/18 06:25:58;;;;;;;5.65;3.97;;;16.00;99.90;;;;;;5073090;28;20025;-86
2021/08/18 06:28:25;;;;;;;7.75;4.78;;;16.10;99.90;;;;;;5058463;28;20025;-86
2021/08/18 06:30:52;;;;;;;8.77;5.20;;;16.10;99.90;;;;;;5058534;28;20055;-88
2021/08/18 06:33:18;;;;;;;7.90;4.82;;;16.00;99.90;;;;;;5058768;28;20090;-86
2021/08/18 06:35:44;;;;;;;7.18;4.50;;;16.10;99.90;;;;;;5075913;28;20021;-86
2021/08/18 06:38:10;;;;;;;7.30;3.80;;;16.10;99.90;;;;;;5058420;28;20465;-86
2021/08/18 06:40:36;;;;;;;6.55;4.07;;;16.00;99.90;;;;;;5075440;28;20131;-86
2021/08/18 06:43:02;;;;;;;5.75;3.38;;;16.00;99.90;;;;;;5076682;28;20095;-86
2021/08/18 06:45:31;;;;;;;6.47;3.45;;;16.10;99.90;;;;;;5057804;28;20478;-86
2021/08/18 06:47:57;;;;;;;6.07;3.95;;;16.10;99.90;;;;;;5058035;28;20094;-86
2021/08/18 06:50:23;;;;;;;4.78;3.30;;;16.10;99.90;;;;;;5058486;28;20027;-85
2021/08/18 06:52:50;;;;;;;5.38;3.60;;;16.10;99.90;;;;;;5058463;28;20047;-87
2021/08/18 06:55:16;;;;;;;6.80;3.83;;;16.10;99.90;;;;;;5057820;28;20028;-84
2021/08/18 06:57:41;;;;;;;8.52;4.40;;;16.10;99.90;;;;;;5058066;28;20025;-86
2021/08/18 07:00:10;;;;;;;6.88;3.70;;;16.10;99.90;;;;;;5076989;28;20111;-86
2021/08/18 07:02:45;;;;;;;6.60;4.30;;;16.10;99.90;;;;;;5064027;28;20039;-87
2021/08/18 07:05:11;;;;;;;6.68;4.15;;;16.20;99.90;;;;;;5061003;28;20027;-87
2021/08/18 07:07:37;;;;;;;4.47;3.50;;;16.20;99.90;;;;;;5057856;28;20112;-87
2021/08/18 07:10:03;;;;;;;5.45;3.38;;;16.20;99.90;;;;;;5056963;28;20123;-87
2021/08/18 07:12:30;;;;;;;7.38;3.78;;;16.20;99.90;;;;;;5057640;28;20029;-87
2021/08/18 07:14:55;;;;;;;5.40;3.92;;;16.20;99.90;;;;;;5057332;28;20073;-87
2021/08/18 07:17:22;;;;;;;5.53;3.47;;;16.30;99.90;;;;;;5056933;28;20021;-87
2021/08/18 07:19:48;;;;;;;5.93;3.30;;;16.40;99.90;;;;;;5057273;28;20025;-87
2021/08/18 07:22:14;;;;;;;5.32;3.50;;;16.40;99.90;;;;;;5057218;28;20029;-86
2021/08/18 07:24:40;;;;;;;5.55;3.53;;;16.50;99.90;;;;;;5074900;28;20376;-87
2021/08/18 07:27:07;;;;;;;5.53;3.85;;;16.60;99.90;;;;;;5057195;28;20029;-85
2021/08/18 07:29:33;;;;;;;7.07;4.32;;;16.60;99.90;;;;;;5056402;28;20025;-86
2021/08/18 07:32:01;;;;;;;5.53;3.78;;;16.60;99.90;;;;;;5037698;28;20461;-86
2021/08/18 07:34:27;;;;;;;5.57;3.40;;;16.60;99.90;;;;;;5037717;28;20500;-87
2021/08/18 07:36:52;;;;;;;5.07;3.30;;;16.70;99.90;;;;;;5055807;28;20028;-87
2021/08/18 07:39:19;;;;;;;6.20;3.33;;;16.80;99.90;;;;;;5056233;28;20056;-85
2021/08/18 07:41:45;;;;;;;5.18;3.30;;;16.80;99.90;;;;;;5056688;28;20106;-86
2021/08/18 07:44:11;;;;;;;4.88;3.35;;;16.90;99.90;;;;;;5056700;28;20012;-86
2021/08/18 07:46:38;;;;;;;5.28;3.28;;;16.90;99.90;;;;;;5056761;28;20020;-86
2021/08/18 07:49:08;;;;;;;4.22;2.92;;;17.00;99.90;;;;;;5057604;28;20056;-87
2021/08/18 07:51:37;;;;;;;6.35;3.67;;;17.00;99.90;;;;;;5055756;28;20123;-88
2021/08/18 07:54:09;;;;;;;5.83;3.70;;;17.10;99.90;;;;;;5075192;28;20369;-87
2021/08/18 07:56:40;;;;;;;4.72;3.17;;;17.00;99.90;;;;;;5056311;28;20275;-86
2021/08/18 07:59:08;;;;;;;5.00;3.30;;;17.00;99.90;;;;;;5056673;28;20029;-87
2021/08/18 08:01:35;;;;;;;4.10;3.10;;;17.00;99.90;;;;;;5075501;28;20028;-88
2021/08/18 08:04:01;;;;;;;3.13;2.50;;;17.00;99.90;;;;;;5058217;28;20024;-87
2021/08/18 08:06:28;;;;;;;4.80;3.35;;;17.00;99.90;;;;;;5057923;28;20082;-87
2021/08/18 08:08:55;;;;;;;5.88;3.58;;;17.10;99.90;;;;;;5057372;28;20020;-87
2021/08/18 08:11:20;;;;;;;3.38;2.67;;;17.10;99.90;;;;;;5056140;28;20024;-87
2021/08/18 08:13:47;;;;;;;6.28;3.28;;;17.20;99.90;;;;;;5057200;28;20028;-87
2021/08/18 08:16:13;;;;;;;4.22;2.60;;;17.20;99.90;;;;;;5055514;28;20024;-87
2021/08/18 08:18:39;;;;;;;5.38;3.50;;;17.20;99.90;;;;;;5056611;28;20112;-87
2021/08/18 08:21:05;;;;;;;3.95;3.05;;;17.30;99.90;;;;;;5056109;28;20029;-87
2021/08/18 08:23:31;;;;;;;4.65;3.40;;;17.30;99.90;;;;;;5056754;28;20082;-87
2021/08/18 08:25:58;;;;;;;4.25;2.78;;;17.40;99.90;;;;;;5037589;28;20102;-87
2021/08/18 08:28:26;;;;;;;5.03;3.40;;;17.50;99.90;;;;;;5053664;28;20044;-87
2021/08/18 08:30:53;;;;;;;4.93;3.40;;;17.60;99.90;;;;;;5054200;28;20100;-87
2021/08/18 08:33:20;;;;;;;5.03;3.78;;;17.80;99.90;;;;;;5056361;28;20475;-86
2021/08/18 08:35:51;;;;;;;8.60;4.05;;;17.80;99.90;;;;;;5063119;28;20059;-87
2021/08/18 08:38:19;;;;;;;6.13;4.10;;;17.90;99.90;;;;;;5054284;28;20025;-87
2021/08/18 08:40:45;;;;;;;10.40;5.22;;;17.90;99.90;;;;;;5051060;28;20118;-88
2021/08/18 08:43:14;;;;;;;7.20;5.68;;;18.00;99.90;;;;;;5052023;28;20090;-88
2021/08/18 08:45:46;;;;;;;7.80;5.97;;;18.00;99.90;;;;;;5052045;28;20082;-86
2021/08/18 08:48:15;;;;;;;7.72;6.28;;;18.10;99.90;;;;;;5036235;28;20090;-87
2021/08/18 08:50:44;;;;;;;7.57;6.07;;;18.20;99.90;;;;;;5052447;28;20489;-87
2021/08/18 08:53:11;;;;;;;9.48;6.82;;;18.20;99.90;;;;;;5053491;28;20045;-87
2021/08/18 08:55:38;;;;;;;10.05;7.35;;;18.30;99.90;;;;;;5051733;28;20029;-87
2021/08/18 08:58:04;;;;;;;9.00;7.13;;;18.30;99.90;;;;;;5052286;28;20031;-86
2021/08/18 09:00:30;;;;;;;9.40;7.45;;;18.30;99.90;;;;;;5051626;28;20111;-87
2021/08/18 09:03:15;;;;;;;10.93;9.73;;;18.20;99.90;;;;;;5053684;28;20066;-87
2021/08/18 09:05:45;;;;;;;10.13;7.93;;;18.30;99.90;;;;;;5052279;28;20444;-87
2021/08/18 09:08:15;;;;;;;8.02;7.20;;;18.40;99.90;;;;;;5052430;28;20028;-86
2021/08/18 09:11:02;;;;;;;9.68;6.82;;;18.50;99.90;;;;;;5035650;28;20106;-88
2021/08/18 09:13:58;;;;;;;11.73;7.80;;;18.50;99.90;;;;;;5051935;28;20543;-87
2021/08/18 09:16:36;;;;;;;10.05;7.90;;;18.60;99.90;;;;;;5051787;28;20032;-88
2021/08/18 09:19:04;;;;;;;11.60;7.85;;;18.50;99.90;;;;;;5052579;28;20052;-88
2021/08/18 09:21:42;;;;;;;9.15;7.57;;;18.50;99.90;;;;;;5052696;28;20492;-87
2021/08/18 09:24:11;;;;;;;9.85;7.60;;;18.50;99.90;;;;;;5050178;28;20025;-88
2021/08/18 09:26:43;;;;;;;8.25;6.93;;;18.60;99.90;;;;;;5051689;28;20013;-87
2021/08/18 09:29:10;;;;;;;11.07;7.50;;;18.80;99.90;;;;;;5052101;28;20032;-88
2021/08/18 09:31:40;;;;;;;10.07;7.45;;;19.00;99.90;;;;;;5051964;28;20128;-87
2021/08/18 09:34:12;;;;;;;14.50;8.90;;;19.10;99.90;;;;;;5051941;28;20626;-88
2021/08/18 09:36:39;;;;;;;9.07;8.00;;;19.20;99.90;;;;;;5051778;28;20024;-88
2021/08/18 09:39:24;;;;;;;8.00;7.00;;;19.20;99.90;;;;;;5055220;28;20049;-89
2021/08/18 09:41:52;;;;;;;9.30;7.35;;;19.40;99.90;;;;;;5054722;28;20031;-88
2021/08/18 09:44:21;;;;;;;8.85;7.95;;;19.60;99.90;;;;;;5053448;28;20056;-88
2021/08/18 09:47:05;;;;;;;8.18;7.20;;;19.70;99.90;;;;;;5053668;28;20034;-88
2021/08/18 09:49:33;;;;;;;10.30;9.20;;;19.90;99.90;;;;;;5052806;28;20025;-88
2021/08/18 09:51:59;;;;;;;14.13;10.88;;;20.00;99.90;;;;;;5053400;28;20189;-88
2021/08/18 09:54:36;;;;;;;13.15;11.20;;;19.90;99.90;;;;;;5053038;28;20059;-89
2021/08/18 09:57:07;;;;;;;10.82;9.73;;;19.90;99.90;;;;;;5052518;28;20024;-88
2021/08/18 09:59:43;;;;;;;11.27;9.75;;;19.90;99.90;;;;;;5070609;28;20115;-87
2021/08/18 10:02:11;;;;;;;12.30;11.10;;;20.00;99.90;;;;;;5055807;28;20056;-88
2021/08/18 10:04:37;;;;;;;12.93;11.15;;;19.90;99.90;;;;;;5060751;28;20122;-88
2021/08/18 10:07:05;;;;;;;15.32;13.88;;;19.80;99.90;;;;;;5076827;28;20025;-88
2021/08/18 10:09:33;;;;;;;17.63;16.02;;;19.70;99.90;;;;;;5057111;28;20032;-88
2021/08/18 10:11:59;;;;;;;20.23;18.23;;;19.70;99.90;;;;;;5056544;28;20032;-88
2021/08/18 10:14:25;;;;;;;19.50;17.63;;;19.80;99.90;;;;;;5058120;28;20174;-88
2021/08/18 10:16:52;;;;;;;18.15;16.35;;;19.80;99.90;;;;;;5074129;28;20024;-87
2021/08/18 10:19:19;;;;;;;19.52;17.50;;;19.90;99.90;;;;;;5056806;28;20032;-87
2021/08/18 10:21:46;;;;;;;20.15;18.25;;;20.00;99.90;;;;;;5057243;28;20104;-87
2021/08/18 10:24:38;;;;;;;18.35;16.65;;;19.90;99.90;;;;;;5057040;28;20107;-89
2021/08/18 10:27:05;;;;;;;15.68;14.18;;;19.90;99.90;;;;;;5057439;28;20081;-87
2021/08/18 10:29:38;;;;;;;15.45;13.93;;;19.80;99.90;;;;;;5062809;28;20058;-89
2021/08/18 10:32:09;;;;;;;13.73;12.43;;;19.70;99.90;;;;;;5045997;28;20033;-88
2021/08/18 10:34:47;;;;;;;12.23;10.93;;;19.70;99.90;;;;;;5061034;28;20020;-88
2021/08/18 10:37:17;;;;;;;12.10;10.80;;;19.80;99.90;;;;;;5062589;28;20123;-88
2021/08/18 10:39:53;;;;;;;11.23;10.13;;;19.80;99.90;;;;;;5059383;28;20508;-88
2021/08/18 10:42:41;;;;;;;11.68;10.45;;;19.80;99.90;;;;;;5040870;28;20028;-88
2021/08/18 10:45:22;;;;;;;10.77;9.68;;;19.80;99.90;;;;;;5044894;28;20029;-89
2021/08/18 10:47:49;;;;;;;10.93;9.80;;;19.80;99.90;;;;;;5062006;28;20037;-90
2021/08/18 10:50:23;;;;;;;12.55;11.23;;;19.80;99.90;;;;;;5061262;28;20025;-89
2021/08/18 10:52:56;;;;;;;13.63;11.65;;;19.80;99.90;;;;;;5061750;28;20029;-90
2021/08/18 10:55:31;;;;;;;12.37;11.10;;;19.70;99.90;;;;;;5061599;28;20031;-88
2021/08/18 10:58:02;;;;;;;10.05;8.73;;;19.60;99.90;;;;;;5055818;28;20029;-89
2021/08/18 11:00:40;;;;;;;9.98;8.10;;;19.40;99.90;;;;;;5054300;28;20686;-89
2021/08/18 11:03:07;;;;;;;9.57;8.25;;;19.00;99.90;;;;;;5053508;28;20023;-88
2021/08/18 11:05:38;;;;;;;9.88;8.88;;;18.60;99.90;;;;;;5052074;28;20036;-88
2021/08/18 11:08:09;;;;;;;10.23;8.52;;;18.40;99.90;;;;;;5051912;28;20036;-88
2021/08/18 11:10:56;;;;;;;10.15;8.73;;;18.30;99.90;;;;;;5050902;28;20029;-88
2021/08/18 11:14:05;;;;;;;11.30;8.80;;;18.30;99.90;;;;;;5038251;28;20033;-88
2021/08/18 11:16:32;;;;;;;9.93;8.55;;;18.50;99.90;;;;;;5043496;28;20028;-89
2021/08/18 11:19:08;;;;;;;9.50;8.50;;;18.70;99.90;;;;;;5053920;28;20096;-88
2021/08/18 11:21:36;;;;;;;9.70;8.70;;;18.90;99.90;;;;;;5053335;28;20056;-88
2021/08/18 11:24:10;;;;;;;10.43;8.98;;;19.30;99.90;;;;;;5053623;28;20025;-90
2021/08/18 11:26:42;;;;;;;8.82;7.93;;;19.50;99.90;;;;;;5054310;28;20016;-89
2021/08/18 11:29:11;;;;;;;7.18;6.47;;;19.80;99.90;;;;;;5054376;28;20020;-90
2021/08/18 11:31:49;;;;;;;5.55;4.95;;;20.00;99.90;;;;;;5053939;28;20037;-90
2021/08/18 11:34:20;;;;;;;5.10;4.43;;;20.20;99.90;;;;;;5054675;28;20017;-89
2021/08/18 11:36:47;;;;;;;5.30;4.00;;;20.30;99.90;;;;;;5054638;28;20175;-90
2021/08/18 11:39:13;;;;;;;5.03;3.92;;;20.40;99.90;;;;;;5055000;28;20076;-89
2021/08/18 11:41:42;;;;;;;4.90;4.25;;;20.60;99.90;;;;;;5053477;28;20055;-89
2021/08/18 11:44:15;;;;;;;4.25;3.33;;;20.80;99.90;;;;;;5053740;28;20087;-90
2021/08/18 11:46:41;;;;;;;5.38;4.57;;;21.00;99.90;;;;;;5052707;28;20029;-91
2021/08/18 11:49:09;;;;;;;7.55;6.13;;;21.20;99.90;;;;;;5036260;28;20041;-89
2021/08/18 11:51:36;;;;;;;6.45;5.57;;;21.10;99.90;;;;;;5052981;28;20104;-90
2021/08/18 11:54:02;;;;;;;7.53;6.70;;;20.90;99.90;;;;;;5053061;28;20017;-91
2021/08/18 11:56:30;;;;;;;7.53;6.57;;;20.70;99.90;;;;;;5052769;28;20029;-88
2021/08/18 11:59:14;;;;;;;12.30;10.25;;;20.50;99.90;;;;;;5052637;28;20025;-88
2021/08/18 12:01:40;;;;;;;11.35;10.18;;;19.80;99.90;;;;;;5051208;28;20055;-88
2021/08/18 12:04:06;;;;;;;11.48;10.35;;;19.10;99.90;;;;;;5053830;28;20029;-88
2021/08/18 12:06:36;;;;;;;13.48;12.15;;;18.60;99.90;;;;;;5052864;28;20013;-88
2021/08/18 12:09:17;;;;;;;13.88;12.35;;;18.40;99.90;;;;;;5052972;28;20020;-88
2021/08/18 12:11:43;;;;;;;15.35;13.75;;;18.30;99.90;;;;;;5052120;28;20075;-89
2021/08/18 12:14:18;;;;;;;16.98;13.85;;;18.40;99.90;;;;;;5052672;28;20017;-89
2021/08/18 12:16:55;;;;;;;14.95;13.00;;;18.50;99.90;;;;;;5052603;28;20059;-88
2021/08/18 12:19:26;;;;;;;16.15;14.55;;;18.60;99.90;;;;;;5053786;28;20029;-90
2021/08/18 12:22:13;;;;;;;15.68;14.07;;;18.80;99.90;;;;;;5050247;28;20021;-88
2021/08/18 12:24:44;;;;;;;17.42;15.70;;;19.00;99.90;;;;;;5038531;28;20025;-88
2021/08/18 12:27:14;;;;;;;19.13;15.75;;;19.20;99.90;;;;;;5052845;28;20029;-88
2021/08/18 12:29:41;;;;;;;16.65;14.82;;;19.60;99.90;;;;;;5052602;28;20074;-89
2021/08/18 12:32:12;;;;;;;15.57;13.95;;;20.00;99.90;;;;;;5054295;28;20037;-90
2021/08/18 12:34:44;;;;;;;15.00;13.32;;;20.20;99.90;;;;;;5054202;28;20017;-89
2021/08/18 12:37:19;;;;;;;14.32;12.93;;;20.30;99.90;;;;;;5052607;28;20021;-90
2021/08/18 12:39:57;;;;;;;13.52;12.13;;;20.30;99.90;;;;;;5050642;28;20060;-87
2021/08/18 12:42:29;;;;;;;13.93;12.40;;;20.30;99.90;;;;;;5036331;28;20408;-88
2021/08/18 12:45:08;;;;;;;13.27;11.82;;;20.30;99.90;;;;;;5052632;28;20025;-90
2021/08/18 12:47:54;;;;;;;14.00;12.60;;;20.30;99.90;;;;;;5049307;28;20039;-88